Tk Rotterdam — A8RG8 — position and weather

sailwx.info

Track history (hours):
 
Tides and Currents Weather Stations Pressure Air Temp Water Temp Dewpoint Dewpoint Depression Visibility Wind Speed Wind Dir Waves Ship Positions

Tk Rotterdam

Last reported at 2015-Jul-04 07:33 UTC. Time now 2015-Jul-06 00:59 UTC.
Position N 39°19' W 009°50'.

Length 130 m; draft 7.8 m.

Type: Cargo ship. MMSI: 636014098.

Date/timePositionNaut miles runAvg speedWind from/ knotsBaromVisibWave heightAir tempDewpointWater temp
2015-Jul-04 07:33N 39°19' W 009°50'1211.8
2015-Jul-04 06:33N 39°07' W 009°51'1211.6
2015-Jul-04 05:33N 38°55' W 009°51'1211.7
2015-Jul-04 04:33N 38°43' W 009°51'1111.3
2015-Jul-04 03:33N 38°32' W 009°48'1111.2
2015-Jul-04 02:33N 38°21' W 009°45'1111.2
2015-Jul-04 01:33N 38°10' W 009°42'1311.4
2015-Jul-04 00:26N 37°58' W 009°39'1111.9
2015-Jul-03 23:32N 37°48' W 009°36'1211.8
2015-Jul-03 22:33N 37°36' W 009°32'1010.3
2015-Jul-03 21:33N 37°26' W 009°30'7 6.6
2015-Jul-03 20:33N 37°20' W 009°28'1 0.9
2015-Jul-03 19:33N 37°21' W 009°28'0 0.4
2015-Jul-03 18:33N 37°21' W 009°28'8 8.1
2015-Jul-03 17:32N 37°13' W 009°25'8 8.3
2015-Jul-03 16:31N 37°05' W 009°23'9 8.0
2015-Jul-03 15:22N 36°56' W 009°20'6 7.4
2015-Jul-03 14:32N 36°50' W 009°16'8 7.8
2015-Jul-03 13:31N 36°45' W 009°09'8 7.6
2015-Jul-03 12:28N 36°42' W 008°59'5 5.3
2015-Jul-03 11:33N 36°40' W 008°54'2 2.4
2015-Jul-03 10:33N 36°40' W 008°51'1210.9
2015-Jul-03 09:28N 36°36' W 008°37'1011.2
2015-Jul-03 08:32N 36°33' W 008°24'1111.3
2015-Jul-03 07:33N 36°29' W 008°11'1111.4
2015-Jul-03 06:33N 36°25' W 007°58'11911.9
2015-Jul-02 20:33N 35°58' W 005°35'9 8.3
2015-Jul-02 19:25N 36°01' W 005°24'7 8.3
2015-Jul-02 18:33N 36°02' W 005°15'10610.4
2015-Jul-02 08:27N 36°20' W 003°07'1111.6
2015-Jul-02 07:32N 36°21' W 002°53'1111.4
2015-Jul-02 06:32N 36°22' W 002°39'1111.7
2015-Jul-02 05:33N 36°24' W 002°25'1211.7
2015-Jul-02 04:33N 36°26' W 002°11'4012.2
2015-Jul-02 01:16N 36°32' W 001°22'2012.0
2015-Jul-01 23:33N 36°35' W 000°57'1212.0
2015-Jul-01 22:34N 36°37' W 000°42'1212.0
2015-Jul-01 21:33N 36°39' W 000°27'1212.0
2015-Jul-01 20:33N 36°41' W 000°12'1111.5
2015-Jul-01 19:33N 36°43' E 000°02'1211.7
2015-Jul-01 18:33N 36°44' E 000°16'1111.5
2015-Jul-01 17:33N 36°46' E 000°31'1211.7
2015-Jul-01 16:33N 36°48' E 000°45'1212.0
2015-Jul-01 15:33N 36°50' E 000°60'1212.5
2015-Jul-01 14:33N 36°52' E 001°15'1312.5
2015-Jul-01 13:33N 36°54' E 001°31'1211.9
2015-Jul-01 12:33N 36°56' E 001°45'1211.7
2015-Jul-01 11:33N 36°57' E 001°60'1211.7
2015-Jul-01 10:33N 36°59' E 002°14'1211.9
2015-Jul-01 09:33N 37°01' E 002°29'1211.9
2015-Jul-01 08:33N 37°03' E 002°44'1211.6
2015-Jul-01 07:33N 37°05' E 002°58'1211.7
2015-Jul-01 06:33N 37°07' E 003°13'1212.0
2015-Jul-01 05:34N 37°08' E 003°28'1212.0
2015-Jul-01 04:33N 37°10' E 003°42'1212.3
2015-Jul-01 03:33N 37°12' E 003°58'1212.3
2015-Jul-01 02:33N 37°14' E 004°13'1212.0
2015-Jul-01 01:34N 37°16' E 004°28'1711.9
2015-Jul-01 00:06N 37°18' E 004°49'611.6
2015-Jun-30 23:33N 37°19' E 004°57'1211.7
2015-Jun-30 22:33N 37°21' E 005°12'1211.9
2015-Jun-30 21:33N 37°22' E 005°27'1212.1
2015-Jun-30 20:33N 37°24' E 005°42'1312.6
2015-Jun-30 19:33N 37°25' E 005°58'1313.1
2015-Jun-30 18:33N 37°26' E 006°14'1313.2
2015-Jun-30 17:33N 37°26' E 006°31'1512.8
2015-Jun-30 16:23N 37°28' E 006°49'1112.2
2015-Jun-30 15:30N 37°29' E 007°03'1112.0
2015-Jun-30 14:33N 37°30' E 007°17'1311.9
2015-Jun-30 13:26N 37°31' E 007°34'14211.7
2015-Jun-30 01:19N 37°35' E 010°33'911.0
2015-Jun-30 00:33N 37°32' E 010°43'1110.8
2015-Jun-29 23:33N 37°30' E 010°56'1611.3
2015-Jun-29 22:09N 37°25' E 011°15'711.9
2015-Jun-29 21:33N 37°23' E 011°24'1211.9
2015-Jun-29 20:33N 37°19' E 011°38'1212.1
2015-Jun-29 19:33N 37°16' E 011°53'1211.6
2015-Jun-29 18:33N 37°13' E 012°07'1211.5
2015-Jun-29 17:33N 37°09' E 012°20'1211.5
2015-Jun-29 16:33N 37°06' E 012°34'1211.6
2015-Jun-29 15:33N 37°02' E 012°48'1211.5
2015-Jun-29 14:33N 36°59' E 013°02'1211.5
2015-Jun-29 13:31N 36°55' E 013°16'1111.2
2015-Jun-29 12:33N 36°52' E 013°29'1111.2
2015-Jun-29 11:32N 36°49' E 013°43'1111.0
2015-Jun-29 10:33N 36°46' E 013°56'1212.2
2015-Jun-29 09:33N 36°42' E 014°10'1212.0
2015-Jun-29 08:33N 36°38' E 014°25'1211.7
2015-Jun-29 07:33N 36°35' E 014°39'  
2015-Jun-26 04:31N 40°56' E 028°53'3 0.5
2015-Jun-25 21:29N 40°58' E 028°56'0 0.2
2015-Jun-25 19:31N 40°58' E 028°56'0 0.0
2015-Jun-25 18:31N 40°58' E 028°56'0 0.0
2015-Jun-25 17:27N 40°58' E 028°56'0 0.1
2015-Jun-25 16:33N 40°58' E 028°56'0 0.0
2015-Jun-25 15:28N 40°58' E 028°56'0 0.0
2015-Jun-25 14:29N 40°58' E 028°56'0 0.0
2015-Jun-25 13:09N 40°58' E 028°56'0 0.0
2015-Jun-25 12:23N 40°58' E 028°56'0 0.1
2015-Jun-25 11:26N 40°58' E 028°56'2 2.4
2015-Jun-25 10:33N 40°59' E 028°59'10 9.2
2015-Jun-25 09:27N 41°08' E 029°04'26210.8
2015-Jun-24 09:11N 43°19' E 034°11'711.4
2015-Jun-24 08:33N 43°22' E 034°20'  
Track history (hours):
 
Tides and Currents Weather Stations Pressure Air Temp Water Temp Dewpoint Dewpoint Depression Visibility Wind Speed Wind Dir Waves Ship Positions

Tk Rotterdam

Last reported at 2015-Jul-04 07:33 UTC. Time now 2015-Jul-06 00:59 UTC.
Position N 39°19' W 009°50'.

Length 130 m; draft 7.8 m.

Type: Cargo ship. MMSI: 636014098.

Date/timePositionNaut miles runAvg speedWind from/ knotsBaromVisibWave heightAir tempDewpointWater temp
2015-Jul-04 07:33N 39°19' W 009°50'1211.8
2015-Jul-04 06:33N 39°07' W 009°51'1211.6
2015-Jul-04 05:33N 38°55' W 009°51'1211.7
2015-Jul-04 04:33N 38°43' W 009°51'1111.3
2015-Jul-04 03:33N 38°32' W 009°48'1111.2
2015-Jul-04 02:33N 38°21' W 009°45'1111.2
2015-Jul-04 01:33N 38°10' W 009°42'1311.4
2015-Jul-04 00:26N 37°58' W 009°39'1111.9
2015-Jul-03 23:32N 37°48' W 009°36'1211.8
2015-Jul-03 22:33N 37°36' W 009°32'1010.3
2015-Jul-03 21:33N 37°26' W 009°30'7 6.6
2015-Jul-03 20:33N 37°20' W 009°28'1 0.9
2015-Jul-03 19:33N 37°21' W 009°28'0 0.4
2015-Jul-03 18:33N 37°21' W 009°28'8 8.1
2015-Jul-03 17:32N 37°13' W 009°25'8 8.3
2015-Jul-03 16:31N 37°05' W 009°23'9 8.0
2015-Jul-03 15:22N 36°56' W 009°20'6 7.4
2015-Jul-03 14:32N 36°50' W 009°16'8 7.8
2015-Jul-03 13:31N 36°45' W 009°09'8 7.6
2015-Jul-03 12:28N 36°42' W 008°59'5 5.3
2015-Jul-03 11:33N 36°40' W 008°54'2 2.4
2015-Jul-03 10:33N 36°40' W 008°51'1210.9
2015-Jul-03 09:28N 36°36' W 008°37'1011.2
2015-Jul-03 08:32N 36°33' W 008°24'1111.3
2015-Jul-03 07:33N 36°29' W 008°11'1111.4
2015-Jul-03 06:33N 36°25' W 007°58'11911.9
2015-Jul-02 20:33N 35°58' W 005°35'9 8.3
2015-Jul-02 19:25N 36°01' W 005°24'7 8.3
2015-Jul-02 18:33N 36°02' W 005°15'10610.4
2015-Jul-02 08:27N 36°20' W 003°07'1111.6
2015-Jul-02 07:32N 36°21' W 002°53'1111.4
2015-Jul-02 06:32N 36°22' W 002°39'1111.7
2015-Jul-02 05:33N 36°24' W 002°25'1211.7
2015-Jul-02 04:33N 36°26' W 002°11'4012.2
2015-Jul-02 01:16N 36°32' W 001°22'2012.0
2015-Jul-01 23:33N 36°35' W 000°57'1212.0
2015-Jul-01 22:34N 36°37' W 000°42'1212.0
2015-Jul-01 21:33N 36°39' W 000°27'1212.0
2015-Jul-01 20:33N 36°41' W 000°12'1111.5
2015-Jul-01 19:33N 36°43' E 000°02'1211.7
2015-Jul-01 18:33N 36°44' E 000°16'1111.5
2015-Jul-01 17:33N 36°46' E 000°31'1211.7
2015-Jul-01 16:33N 36°48' E 000°45'1212.0
2015-Jul-01 15:33N 36°50' E 000°60'1212.5
2015-Jul-01 14:33N 36°52' E 001°15'1312.5
2015-Jul-01 13:33N 36°54' E 001°31'1211.9
2015-Jul-01 12:33N 36°56' E 001°45'1211.7
2015-Jul-01 11:33N 36°57' E 001°60'1211.7
2015-Jul-01 10:33N 36°59' E 002°14'1211.9
2015-Jul-01 09:33N 37°01' E 002°29'1211.9
2015-Jul-01 08:33N 37°03' E 002°44'1211.6
2015-Jul-01 07:33N 37°05' E 002°58'1211.7
2015-Jul-01 06:33N 37°07' E 003°13'1212.0
2015-Jul-01 05:34N 37°08' E 003°28'1212.0
2015-Jul-01 04:33N 37°10' E 003°42'1212.3
2015-Jul-01 03:33N 37°12' E 003°58'1212.3
2015-Jul-01 02:33N 37°14' E 004°13'1212.0
2015-Jul-01 01:34N 37°16' E 004°28'1711.9
2015-Jul-01 00:06N 37°18' E 004°49'611.6
2015-Jun-30 23:33N 37°19' E 004°57'1211.7
2015-Jun-30 22:33N 37°21' E 005°12'1211.9
2015-Jun-30 21:33N 37°22' E 005°27'1212.1
2015-Jun-30 20:33N 37°24' E 005°42'1312.6
2015-Jun-30 19:33N 37°25' E 005°58'1313.1
2015-Jun-30 18:33N 37°26' E 006°14'1313.2
2015-Jun-30 17:33N 37°26' E 006°31'1512.8
2015-Jun-30 16:23N 37°28' E 006°49'1112.2
2015-Jun-30 15:30N 37°29' E 007°03'1112.0
2015-Jun-30 14:33N 37°30' E 007°17'1311.9
2015-Jun-30 13:26N 37°31' E 007°34'14211.7
2015-Jun-30 01:19N 37°35' E 010°33'911.0
2015-Jun-30 00:33N 37°32' E 010°43'1110.8
2015-Jun-29 23:33N 37°30' E 010°56'1611.3
2015-Jun-29 22:09N 37°25' E 011°15'711.9
2015-Jun-29 21:33N 37°23' E 011°24'1211.9
2015-Jun-29 20:33N 37°19' E 011°38'1212.1
2015-Jun-29 19:33N 37°16' E 011°53'1211.6
2015-Jun-29 18:33N 37°13' E 012°07'1211.5
2015-Jun-29 17:33N 37°09' E 012°20'1211.5
2015-Jun-29 16:33N 37°06' E 012°34'1211.6
2015-Jun-29 15:33N 37°02' E 012°48'1211.5
2015-Jun-29 14:33N 36°59' E 013°02'1211.5
2015-Jun-29 13:31N 36°55' E 013°16'1111.2
2015-Jun-29 12:33N 36°52' E 013°29'1111.2
2015-Jun-29 11:32N 36°49' E 013°43'1111.0
2015-Jun-29 10:33N 36°46' E 013°56'1212.2
2015-Jun-29 09:33N 36°42' E 014°10'1212.0
2015-Jun-29 08:33N 36°38' E 014°25'1211.7
2015-Jun-29 07:33N 36°35' E 014°39'  
2015-Jun-26 04:31N 40°56' E 028°53'3 0.5
2015-Jun-25 21:29N 40°58' E 028°56'0 0.2
2015-Jun-25 19:31N 40°58' E 028°56'0 0.0
2015-Jun-25 18:31N 40°58' E 028°56'0 0.0
2015-Jun-25 17:27N 40°58' E 028°56'0 0.1
2015-Jun-25 16:33N 40°58' E 028°56'0 0.0
2015-Jun-25 15:28N 40°58' E 028°56'0 0.0
2015-Jun-25 14:29N 40°58' E 028°56'0 0.0
2015-Jun-25 13:09N 40°58' E 028°56'0 0.0
2015-Jun-25 12:23N 40°58' E 028°56'0 0.1
2015-Jun-25 11:26N 40°58' E 028°56'2 2.4
2015-Jun-25 10:33N 40°59' E 028°59'10 9.2
2015-Jun-25 09:27N 41°08' E 029°04'26210.8
2015-Jun-24 09:11N 43°19' E 034°11'711.4
2015-Jun-24 08:33N 43°22' E 034°20'  

Dump ship's entire track history